createdAt,value
2017-09-24T00:00:07.644Z,83.40
2017-09-24T00:02:35.085Z,83.30
2017-09-24T00:05:02.571Z,83.20
2017-09-24T00:07:30.024Z,83.40
2017-09-24T00:09:57.486Z,83.70
2017-09-24T00:12:24.935Z,83.70
2017-09-24T00:14:52.414Z,83.90
2017-09-24T00:17:19.866Z,83.80
2017-09-24T00:19:47.349Z,83.70
2017-09-24T00:22:14.802Z,83.20
2017-09-24T00:24:42.266Z,83.30
2017-09-24T00:27:09.714Z,83.60
2017-09-24T00:29:37.173Z,83.60
2017-09-24T00:32:05.393Z,83.50
2017-09-24T00:34:32.855Z,83.50
2017-09-24T00:37:00.308Z,83.50
2017-09-24T00:39:27.755Z,83.40
2017-09-24T00:41:55.215Z,83.60
2017-09-24T00:44:22.666Z,83.60
2017-09-24T00:46:50.120Z,83.60
2017-09-24T00:49:17.581Z,83.70
2017-09-24T00:51:45.037Z,83.30
2017-09-24T00:54:12.502Z,83.40
2017-09-24T00:56:39.974Z,83.60
2017-09-24T00:59:07.421Z,83.60
2017-09-24T01:01:34.882Z,84.00
2017-09-24T01:04:02.339Z,84.00
2017-09-24T01:06:29.790Z,84.20
2017-09-24T01:08:57.251Z,84.00
2017-09-24T01:11:24.701Z,84.30
2017-09-24T01:13:52.151Z,84.40
2017-09-24T01:16:20.365Z,84.00
2017-09-24T01:18:47.818Z,84.00
2017-09-24T01:21:15.270Z,84.20
2017-09-24T01:23:42.713Z,84.00
2017-09-24T01:26:10.486Z,83.50
2017-09-24T01:28:37.942Z,82.70
2017-09-24T01:31:05.400Z,82.70
2017-09-24T01:33:32.869Z,83.10
2017-09-24T01:36:00.324Z,83.40
2017-09-24T01:38:27.767Z,83.30
2017-09-24T01:40:55.221Z,83.00
2017-09-24T01:43:22.691Z,83.10
2017-09-24T01:45:50.142Z,83.00
2017-09-24T01:48:17.601Z,82.90
2017-09-24T01:50:45.047Z,82.60
2017-09-24T01:53:12.504Z,82.70
2017-09-24T01:55:39.955Z,83.10
2017-09-24T01:58:07.411Z,83.60
2017-09-24T02:00:34.870Z,83.50
2017-09-24T02:03:02.326Z,83.50
2017-09-24T02:05:29.778Z,83.10
2017-09-24T02:07:57.242Z,82.70
2017-09-24T02:10:24.691Z,82.80
2017-09-24T02:12:52.146Z,82.60
2017-09-24T02:15:19.594Z,82.50
2017-09-24T02:17:47.046Z,82.70
2017-09-24T02:20:14.503Z,82.80
2017-09-24T02:22:41.950Z,82.90
2017-09-24T02:25:09.410Z,83.10
2017-09-24T02:27:36.918Z,83.70
2017-09-24T02:30:04.354Z,83.50
2017-09-24T02:32:31.806Z,83.40
2017-09-24T02:34:59.268Z,83.60
2017-09-24T02:37:26.719Z,83.10
2017-09-24T02:39:54.172Z,82.90
2017-09-24T02:42:21.646Z,83.10
2017-09-24T02:44:49.098Z,83.40
2017-09-24T02:47:16.550Z,83.50
2017-09-24T02:49:44.002Z,83.70
2017-09-24T02:52:11.458Z,83.80
2017-09-24T02:54:38.908Z,83.70
2017-09-24T02:57:06.374Z,83.70
2017-09-24T02:59:33.831Z,84.10
2017-09-24T03:02:01.299Z,84.20
2017-09-24T03:04:28.743Z,84.20
2017-09-24T03:06:56.210Z,83.70
2017-09-24T03:09:23.662Z,83.50
2017-09-24T03:11:51.114Z,83.70
2017-09-24T03:14:18.573Z,83.70
2017-09-24T03:16:46.048Z,84.10
2017-09-24T03:19:13.523Z,83.80
2017-09-24T03:21:41.754Z,83.70
2017-09-24T03:24:09.214Z,83.70
2017-09-24T03:26:36.703Z,83.30
2017-09-24T03:29:04.941Z,83.00
2017-09-24T03:31:32.414Z,83.00
2017-09-24T03:33:59.885Z,83.20
2017-09-24T03:36:27.359Z,83.50
2017-09-24T03:38:54.837Z,83.70
2017-09-24T03:41:22.287Z,83.90
2017-09-24T03:43:49.738Z,84.00
2017-09-24T03:46:17.185Z,83.90
2017-09-24T03:48:45.405Z,83.80
2017-09-24T03:51:12.865Z,83.80
2017-09-24T03:53:40.325Z,83.80
2017-09-24T03:56:07.785Z,83.80
2017-09-24T03:58:35.250Z,84.00
2017-09-24T04:01:02.742Z,83.90
2017-09-24T04:03:30.980Z,83.70
2017-09-24T04:05:58.475Z,83.80
2017-09-24T04:08:25.929Z,83.90
2017-09-24T04:10:53.406Z,84.00
2017-09-24T04:13:20.986Z,84.30
2017-09-24T04:15:48.452Z,84.30
2017-09-24T04:18:15.945Z,84.20
2017-09-24T04:20:43.413Z,84.00
2017-09-24T04:23:10.875Z,84.10
2017-09-24T04:25:39.120Z,84.50
2017-09-24T04:28:06.569Z,84.30
2017-09-24T04:30:34.011Z,84.10
2017-09-24T04:33:01.478Z,84.10
2017-09-24T04:35:28.979Z,84.60
2017-09-24T04:37:57.210Z,84.10
2017-09-24T04:40:24.688Z,84.00
2017-09-24T04:42:52.162Z,83.70
2017-09-24T04:45:20.390Z,83.50
2017-09-24T04:47:47.861Z,83.50
2017-09-24T04:50:15.314Z,83.50
2017-09-24T04:52:42.787Z,83.70
2017-09-24T04:55:10.238Z,84.10
2017-09-24T04:57:37.693Z,84.30
2017-09-24T05:00:05.173Z,84.30
2017-09-24T05:02:32.630Z,84.20
2017-09-24T05:05:00.100Z,84.30
2017-09-24T05:07:28.369Z,84.40
2017-09-24T05:09:56.201Z,84.40
2017-09-24T05:12:23.673Z,84.40
2017-09-24T05:14:51.156Z,84.40
2017-09-24T05:17:18.627Z,84.40
2017-09-24T05:19:46.078Z,84.40
2017-09-24T05:22:14.298Z,84.60
2017-09-24T05:24:41.749Z,84.60
2017-09-24T05:27:09.580Z,84.80
2017-09-24T05:29:37.031Z,85.30
2017-09-24T05:32:04.501Z,85.80
2017-09-24T05:34:31.955Z,86.30
2017-09-24T05:36:59.414Z,86.80
2017-09-24T05:39:26.938Z,87.10
2017-09-24T05:41:54.395Z,87.20
2017-09-24T05:44:21.861Z,87.40
2017-09-24T05:46:50.095Z,87.40
2017-09-24T05:49:17.603Z,87.40
2017-09-24T05:51:45.071Z,87.10
2017-09-24T05:54:12.526Z,87.30
2017-09-24T05:56:39.986Z,87.20
2017-09-24T05:59:07.450Z,87.40
2017-09-24T06:01:34.902Z,87.40
2017-09-24T06:04:02.445Z,87.40
2017-09-24T06:06:30.502Z,87.30
2017-09-24T06:08:57.969Z,87.40
2017-09-24T06:11:25.448Z,87.60
2017-09-24T06:13:52.912Z,87.70
2017-09-24T06:16:20.814Z,87.60
2017-09-24T06:18:48.277Z,87.60
2017-09-24T06:21:20.451Z,87.90
2017-09-24T06:23:47.936Z,87.80
2017-09-24T06:26:15.403Z,88.00
2017-09-24T06:28:42.868Z,87.90
2017-09-24T06:31:10.311Z,88.00
2017-09-24T06:33:37.765Z,87.80
2017-09-24T06:36:05.226Z,87.80
2017-09-24T06:38:32.763Z,87.70
2017-09-24T06:41:00.231Z,87.70
2017-09-24T06:43:28.459Z,87.40
2017-09-24T06:45:56.319Z,87.40
2017-09-24T06:48:36.272Z,87.40
2017-09-24T06:51:03.770Z,87.50
2017-09-24T06:53:31.230Z,87.70
2017-09-24T06:55:59.707Z,87.60
2017-09-24T06:58:27.966Z,87.90
2017-09-24T07:00:55.418Z,87.80
2017-09-24T07:03:22.924Z,87.60
2017-09-24T07:05:50.377Z,87.70
2017-09-24T07:08:17.887Z,87.60
2017-09-24T07:10:45.350Z,87.80
2017-09-24T07:13:12.835Z,87.70
2017-09-24T07:15:41.062Z,87.60
2017-09-24T07:18:08.538Z,87.60
2017-09-24T07:20:36.042Z,87.80
2017-09-24T07:23:03.494Z,87.70
2017-09-24T07:25:30.942Z,87.70
2017-09-24T07:27:59.210Z,87.50
2017-09-24T07:30:27.444Z,87.70
2017-09-24T07:32:55.094Z,87.70
2017-09-24T07:35:23.270Z,87.50
2017-09-24T07:37:50.743Z,87.20
2017-09-24T07:40:18.235Z,87.10
2017-09-24T07:42:45.711Z,87.20
2017-09-24T07:45:13.166Z,87.00
2017-09-24T07:47:40.618Z,87.10
2017-09-24T07:50:08.091Z,87.00
2017-09-24T07:52:35.577Z,87.30
2017-09-24T07:55:03.042Z,87.50
2017-09-24T07:57:30.504Z,87.50
2017-09-24T07:59:57.993Z,87.10
2017-09-24T08:02:26.232Z,86.80
2017-09-24T08:04:53.730Z,86.80
2017-09-24T08:07:21.999Z,86.20
2017-09-24T08:09:50.279Z,86.30
2017-09-24T08:12:17.747Z,86.30
2017-09-24T08:14:45.832Z,86.30
2017-09-24T08:17:13.288Z,86.10
2017-09-24T08:19:40.776Z,85.70
2017-09-24T08:22:08.250Z,85.80
2017-09-24T08:24:35.799Z,86.00
2017-09-24T08:27:03.298Z,86.00
2017-09-24T08:29:30.763Z,86.20
2017-09-24T08:31:58.218Z,86.20
2017-09-24T08:34:25.782Z,86.20
2017-09-24T08:36:53.275Z,85.60
2017-09-24T08:39:20.742Z,85.60
2017-09-24T08:41:48.251Z,85.70
2017-09-24T08:44:15.714Z,85.50
2017-09-24T08:46:43.204Z,85.60
2017-09-24T08:49:10.776Z,85.60
2017-09-24T08:51:38.254Z,85.40
2017-09-24T08:54:05.747Z,85.30
2017-09-24T08:56:33.286Z,85.30
2017-09-24T08:59:01.563Z,86.00
2017-09-24T09:01:29.098Z,85.90
2017-09-24T09:03:56.582Z,86.20
2017-09-24T09:06:24.887Z,85.70
2017-09-24T09:08:52.386Z,85.70
2017-09-24T09:11:19.892Z,86.40
2017-09-24T09:13:47.441Z,86.20
2017-09-24T09:16:14.971Z,86.20
2017-09-24T09:18:42.438Z,86.30
2017-09-24T09:21:10.691Z,86.80
2017-09-24T09:23:38.174Z,86.80
2017-09-24T09:26:05.662Z,86.80
2017-09-24T09:28:33.150Z,87.10
2017-09-24T09:31:00.629Z,87.50
2017-09-24T09:33:28.104Z,87.40
2017-09-24T09:35:56.369Z,87.00
2017-09-24T09:38:25.030Z,87.30
2017-09-24T09:40:52.536Z,87.00
2017-09-24T09:43:31.674Z,86.80
2017-09-24T09:46:00.132Z,87.10
2017-09-24T09:48:27.593Z,86.90
2017-09-24T09:50:55.848Z,86.70
2017-09-24T09:53:23.309Z,86.70
2017-09-24T09:55:50.793Z,86.70
2017-09-24T09:58:18.266Z,86.40
2017-09-24T10:00:45.799Z,86.00
2017-09-24T10:03:14.025Z,86.10
2017-09-24T10:05:41.491Z,86.10
2017-09-24T10:08:21.635Z,86.40
2017-09-24T10:10:49.101Z,86.50
2017-09-24T10:13:16.549Z,86.10
2017-09-24T10:15:44.031Z,86.20
2017-09-24T10:18:11.502Z,86.10
2017-09-24T10:20:39.754Z,86.10
2017-09-24T10:23:07.230Z,86.10
2017-09-24T10:25:34.718Z,85.90
2017-09-24T10:28:02.196Z,86.00
2017-09-24T10:30:41.355Z,85.80
2017-09-24T10:33:08.826Z,85.70
2017-09-24T10:35:36.517Z,85.20
2017-09-24T10:38:03.975Z,85.30
2017-09-24T10:40:31.491Z,85.60
2017-09-24T10:42:58.987Z,85.20
2017-09-24T10:45:26.466Z,84.90
2017-09-24T10:47:53.957Z,85.00
2017-09-24T10:50:21.404Z,85.10
2017-09-24T10:52:48.873Z,84.90
2017-09-24T10:55:16.354Z,84.60
2017-09-24T10:57:43.834Z,84.60
2017-09-24T11:00:11.464Z,84.50
2017-09-24T11:02:39.014Z,84.10
2017-09-24T11:05:06.567Z,83.90
2017-09-24T11:07:34.344Z,83.70
2017-09-24T11:10:01.887Z,83.40
2017-09-24T11:12:29.383Z,83.30
2017-09-24T11:14:56.952Z,83.50
2017-09-24T11:17:24.467Z,83.40
2017-09-24T11:19:52.707Z,82.90
2017-09-24T11:22:20.196Z,82.90
2017-09-24T11:24:47.698Z,82.00
2017-09-24T11:27:15.166Z,81.90
2017-09-24T11:29:42.669Z,82.20
2017-09-24T11:32:10.150Z,81.70
2017-09-24T11:34:37.640Z,82.10
2017-09-24T11:37:05.151Z,81.90
2017-09-24T11:39:32.649Z,81.70
2017-09-24T11:42:00.201Z,81.50
2017-09-24T11:44:27.671Z,81.30
2017-09-24T11:46:55.126Z,81.50
2017-09-24T11:49:22.659Z,81.60
2017-09-24T11:51:50.913Z,82.10
2017-09-24T11:54:18.426Z,82.10
2017-09-24T11:56:45.936Z,82.10
2017-09-24T11:59:13.417Z,81.80
2017-09-24T12:01:41.695Z,81.80
2017-09-24T12:04:09.276Z,81.80
2017-09-24T12:06:36.731Z,81.40
2017-09-24T12:09:04.227Z,81.60
2017-09-24T12:11:31.727Z,81.50
2017-09-24T12:13:59.304Z,81.50
2017-09-24T12:16:26.810Z,81.70
2017-09-24T12:18:54.315Z,81.70
2017-09-24T12:21:21.780Z,81.90
2017-09-24T12:23:49.287Z,82.20
2017-09-24T12:26:16.789Z,82.30
2017-09-24T12:28:44.329Z,82.50
2017-09-24T12:31:11.806Z,82.30
2017-09-24T12:33:39.336Z,82.30
2017-09-24T12:36:07.645Z,82.60
2017-09-24T12:38:35.198Z,82.60
2017-09-24T12:41:02.830Z,82.00
2017-09-24T12:43:30.399Z,82.30
2017-09-24T12:45:58.017Z,82.60
2017-09-24T12:48:25.635Z,82.70
2017-09-24T12:50:53.277Z,82.50
2017-09-24T12:53:20.881Z,82.20
2017-09-24T12:55:48.534Z,82.10
2017-09-24T12:58:16.192Z,81.50
2017-09-24T13:00:43.767Z,81.50
2017-09-24T13:03:11.290Z,81.00
2017-09-24T13:05:38.863Z,81.10
2017-09-24T13:08:06.464Z,81.00
2017-09-24T13:10:33.978Z,81.30
2017-09-24T13:13:01.705Z,81.00
2017-09-24T13:15:29.738Z,80.90
2017-09-24T13:17:57.267Z,80.50
2017-09-24T13:20:24.758Z,79.70
2017-09-24T13:22:52.381Z,79.80
2017-09-24T13:25:19.950Z,80.20
2017-09-24T13:27:47.517Z,80.00
2017-09-24T13:30:15.166Z,80.00
2017-09-24T13:32:42.811Z,80.20
2017-09-24T13:35:10.500Z,80.10
2017-09-24T13:37:38.217Z,79.30
2017-09-24T13:40:05.823Z,79.40
2017-09-24T13:42:33.313Z,79.80
2017-09-24T13:45:00.820Z,80.10
2017-09-24T13:47:29.083Z,79.10
2017-09-24T13:49:57.367Z,78.70
2017-09-24T13:52:24.911Z,78.70
2017-09-24T13:54:52.382Z,78.50
2017-09-24T13:57:20.637Z,77.30
2017-09-24T13:59:48.121Z,77.30
2017-09-24T14:02:16.339Z,75.80
2017-09-24T14:04:43.837Z,75.70
2017-09-24T14:07:11.313Z,75.60
2017-09-24T14:09:39.602Z,75.70
2017-09-24T14:12:07.099Z,75.70
2017-09-24T14:14:34.588Z,75.40
2017-09-24T14:17:02.072Z,75.80
2017-09-24T14:19:29.543Z,76.10
2017-09-24T14:21:57.047Z,75.30
2017-09-24T14:24:24.527Z,75.30
2017-09-24T14:26:52.022Z,75.20
2017-09-24T14:29:19.514Z,75.30
2017-09-24T14:31:46.987Z,74.90
2017-09-24T14:34:14.552Z,75.60
2017-09-24T14:36:42.042Z,75.30
2017-09-24T14:39:09.529Z,75.00
2017-09-24T14:41:37.002Z,75.10
2017-09-24T14:44:04.482Z,75.30
2017-09-24T14:46:32.122Z,75.20
2017-09-24T14:48:59.651Z,75.00
2017-09-24T14:51:27.121Z,75.60
2017-09-24T14:53:54.596Z,76.30
2017-09-24T14:56:22.070Z,76.90
2017-09-24T14:58:50.319Z,77.10
2017-09-24T15:01:17.806Z,77.10
2017-09-24T15:03:46.097Z,77.10
2017-09-24T15:06:13.556Z,77.10
2017-09-24T15:08:41.022Z,77.80
2017-09-24T15:11:08.505Z,78.20
2017-09-24T15:13:36.140Z,78.60
2017-09-24T15:16:03.659Z,78.40
2017-09-24T15:18:31.181Z,78.80
2017-09-24T15:20:58.697Z,78.90
2017-09-24T15:23:26.155Z,78.90
2017-09-24T15:25:54.420Z,78.50
2017-09-24T15:28:21.897Z,78.50
2017-09-24T15:30:49.396Z,78.80
2017-09-24T15:33:16.906Z,78.40
2017-09-24T15:35:44.426Z,78.00
2017-09-24T15:38:11.928Z,78.30
2017-09-24T15:40:39.419Z,78.70
2017-09-24T15:43:07.082Z,78.40
2017-09-24T15:45:34.551Z,78.30
2017-09-24T15:48:02.063Z,78.10
2017-09-24T15:50:30.312Z,78.80
2017-09-24T15:52:57.804Z,78.80
2017-09-24T15:55:25.282Z,79.00
2017-09-24T15:57:52.751Z,79.20
2017-09-24T16:00:20.227Z,79.30
2017-09-24T16:02:47.690Z,79.60
2017-09-24T16:05:15.161Z,80.10
2017-09-24T16:07:43.406Z,80.60
2017-09-24T16:10:10.890Z,80.60
2017-09-24T16:12:38.372Z,81.00
2017-09-24T16:15:05.869Z,81.30
2017-09-24T16:17:33.381Z,81.70
2017-09-24T16:20:00.884Z,81.50
2017-09-24T16:22:28.355Z,82.10
2017-09-24T16:24:55.827Z,82.60
2017-09-24T16:27:23.298Z,82.50
2017-09-24T16:29:51.538Z,82.70
2017-09-24T16:32:19.020Z,82.70
2017-09-24T16:34:46.514Z,83.50
2017-09-24T16:37:13.982Z,83.40
2017-09-24T16:39:41.482Z,83.00
2017-09-24T16:42:08.973Z,83.00
2017-09-24T16:44:36.455Z,83.10
2017-09-24T16:47:03.922Z,83.00
2017-09-24T16:49:31.426Z,82.20
2017-09-24T16:51:59.677Z,82.40
2017-09-24T16:54:27.157Z,82.40
2017-09-24T16:56:54.643Z,83.00
2017-09-24T16:59:22.106Z,82.90
2017-09-24T17:01:49.608Z,82.80
2017-09-24T17:04:17.102Z,83.20
2017-09-24T17:06:45.366Z,83.50
2017-09-24T17:09:12.902Z,83.50
2017-09-24T17:11:40.410Z,84.00
2017-09-24T17:14:07.867Z,84.30
2017-09-24T17:16:35.481Z,84.50
2017-09-24T17:19:02.975Z,84.90
2017-09-24T17:21:30.446Z,84.90
2017-09-24T17:23:57.975Z,85.10
2017-09-24T17:26:25.464Z,85.20
2017-09-24T17:28:52.963Z,85.70
2017-09-24T17:31:20.446Z,85.60
2017-09-24T17:33:47.917Z,85.90
2017-09-24T17:36:15.458Z,86.00
2017-09-24T17:38:42.988Z,85.80
2017-09-24T17:41:10.487Z,85.90
2017-09-24T17:43:37.974Z,86.20
2017-09-24T17:46:05.503Z,86.50
2017-09-24T17:48:32.970Z,86.40
2017-09-24T17:51:00.716Z,86.50
2017-09-24T17:53:28.194Z,86.70
2017-09-24T17:55:55.746Z,87.90
2017-09-24T17:58:23.227Z,87.20
2017-09-24T18:00:50.766Z,87.40
2017-09-24T18:03:19.027Z,87.50
2017-09-24T18:05:46.495Z,87.50
2017-09-24T18:08:13.942Z,87.50
2017-09-24T18:10:42.233Z,87.70
2017-09-24T18:13:09.690Z,87.70
2017-09-24T18:15:37.164Z,87.90
2017-09-24T18:18:04.685Z,87.90
2017-09-24T18:20:32.165Z,88.10
2017-09-24T18:22:59.635Z,88.10
2017-09-24T18:25:28.850Z,88.00
2017-09-24T18:27:56.459Z,88.30
2017-09-24T18:30:24.026Z,88.40
2017-09-24T18:32:51.490Z,88.90
2017-09-24T18:35:19.745Z,89.00
2017-09-24T18:37:47.206Z,89.00
2017-09-24T18:40:14.660Z,89.10
2017-09-24T18:42:42.124Z,89.30
2017-09-24T18:45:09.602Z,89.10
2017-09-24T18:47:37.269Z,89.20
2017-09-24T18:50:04.985Z,89.50
2017-09-24T18:52:32.464Z,89.70
2017-09-24T18:54:59.922Z,89.40
2017-09-24T18:57:27.400Z,89.60
2017-09-24T19:00:01.622Z,89.80
2017-09-24T19:02:29.162Z,89.80
2017-09-24T19:04:56.706Z,90.10
2017-09-24T19:07:24.954Z,90.20
2017-09-24T19:09:52.443Z,90.20
2017-09-24T19:12:19.903Z,90.10
2017-09-24T19:14:47.661Z,90.00
2017-09-24T19:17:15.141Z,90.10
2017-09-24T19:19:43.385Z,90.10
2017-09-24T19:22:10.911Z,90.10
2017-09-24T19:24:38.545Z,90.00
2017-09-24T19:27:06.027Z,90.20
2017-09-24T19:29:33.550Z,90.30
2017-09-24T19:32:01.415Z,90.20
2017-09-24T19:34:28.935Z,90.10
2017-09-24T19:36:56.411Z,90.10
2017-09-24T19:39:23.902Z,90.20
2017-09-24T19:41:51.354Z,90.10
2017-09-24T19:44:19.027Z,90.30
2017-09-24T19:46:46.676Z,90.30
2017-09-24T19:49:14.406Z,90.10
2017-09-24T19:51:41.871Z,90.10
2017-09-24T19:54:09.317Z,90.10
2017-09-24T19:56:36.794Z,90.10
2017-09-24T19:59:04.246Z,90.00
2017-09-24T20:01:32.526Z,90.00
2017-09-24T20:04:00.787Z,90.10
2017-09-24T20:06:28.263Z,90.10
2017-09-24T20:08:55.768Z,90.00
2017-09-24T20:11:23.270Z,90.10
2017-09-24T20:13:51.518Z,90.20
2017-09-24T20:16:19.100Z,90.20
2017-09-24T20:18:47.651Z,90.40
2017-09-24T20:21:15.164Z,90.40
2017-09-24T20:23:42.683Z,90.50
2017-09-24T20:26:10.175Z,90.60
2017-09-24T20:28:37.643Z,90.50
2017-09-24T20:31:05.545Z,90.50
2017-09-24T20:33:33.108Z,90.40
2017-09-24T20:36:00.591Z,90.50
2017-09-24T20:38:28.538Z,90.60
2017-09-24T20:40:56.058Z,90.60
2017-09-24T20:43:23.511Z,90.60
2017-09-24T20:45:51.066Z,90.80
2017-09-24T20:48:18.518Z,90.70
2017-09-24T20:50:46.144Z,90.70
2017-09-24T20:53:13.607Z,90.70
2017-09-24T20:55:43.138Z,90.60
2017-09-24T20:58:10.602Z,90.60
2017-09-24T21:00:38.102Z,90.80
2017-09-24T21:03:07.754Z,91.00
2017-09-24T21:05:35.285Z,90.80
2017-09-24T21:08:02.766Z,90.70
2017-09-24T21:10:30.239Z,90.50
2017-09-24T21:12:57.738Z,90.50
2017-09-24T21:15:25.241Z,90.50
2017-09-24T21:17:58.662Z,90.40
2017-09-24T21:20:26.315Z,90.40
2017-09-24T21:22:53.854Z,90.30
2017-09-24T21:25:22.099Z,90.50
2017-09-24T21:27:49.583Z,90.40
2017-09-24T21:30:17.733Z,90.40
2017-09-24T21:32:45.218Z,90.30
2017-09-24T21:35:12.682Z,90.20
2017-09-24T21:37:40.207Z,90.20
2017-09-24T21:40:07.849Z,90.30
2017-09-24T21:42:35.612Z,90.20
2017-09-24T21:45:03.118Z,90.20
2017-09-24T21:47:30.619Z,90.30
2017-09-24T21:49:58.120Z,90.20
2017-09-24T21:52:25.601Z,90.20
2017-09-24T21:54:53.129Z,90.10
2017-09-24T21:57:20.600Z,90.20
2017-09-24T21:59:48.827Z,90.00
2017-09-24T22:02:16.546Z,90.00
2017-09-24T22:04:44.427Z,90.10
2017-09-24T22:07:11.878Z,90.10
2017-09-24T22:09:39.339Z,90.50
2017-09-24T22:12:06.812Z,90.10
2017-09-24T22:14:34.749Z,90.10
2017-09-24T22:17:02.223Z,90.00
2017-09-24T22:19:29.683Z,90.00
2017-09-24T22:21:57.127Z,90.10
2017-09-24T22:24:25.370Z,90.00
2017-09-24T22:26:52.978Z,90.00
2017-09-24T22:29:20.492Z,90.10
2017-09-24T22:31:47.979Z,90.10
2017-09-24T22:34:15.438Z,90.10
2017-09-24T22:36:42.902Z,90.10
2017-09-24T22:39:10.356Z,90.20
2017-09-24T22:41:37.818Z,90.20
2017-09-24T22:44:05.303Z,90.20
2017-09-24T22:46:32.794Z,90.40
2017-09-24T22:49:00.282Z,90.50
2017-09-24T22:51:27.791Z,90.60
2017-09-24T22:53:55.258Z,90.80
2017-09-24T22:56:22.746Z,90.90
2017-09-24T22:58:50.266Z,91.00
2017-09-24T23:01:17.736Z,91.00
2017-09-24T23:03:45.227Z,91.00
2017-09-24T23:06:12.691Z,91.20
2017-09-24T23:08:40.172Z,91.20
2017-09-24T23:11:07.647Z,91.20
2017-09-24T23:13:35.118Z,91.30
2017-09-24T23:16:02.591Z,91.30
2017-09-24T23:18:30.834Z,91.40
2017-09-24T23:20:58.319Z,91.40
2017-09-24T23:23:26.572Z,91.40
2017-09-24T23:25:54.032Z,91.40
2017-09-24T23:28:21.505Z,91.40
2017-09-24T23:30:48.962Z,91.50
2017-09-24T23:33:16.443Z,91.40
2017-09-24T23:35:43.915Z,91.40
2017-09-24T23:38:11.385Z,91.40
2017-09-24T23:40:38.847Z,91.60
2017-09-24T23:43:06.298Z,91.30
2017-09-24T23:45:33.757Z,91.30
2017-09-24T23:48:01.216Z,91.50
2017-09-24T23:50:28.664Z,91.50
2017-09-24T23:52:56.111Z,91.60
2017-09-24T23:55:23.575Z,91.60
2017-09-24T23:57:51.030Z,91.50
